Terminal Aerodrome Forecast
Issued by NWS

Home | Current Version | Previous Version | Text Only | Print | Product List | Glossary On
Versions: 1 2 3 4 5 6 7 8 9 10 11 12 13 14
000
FTUS45 KABQ 300531
TAFLVS
TAF
KLVS 300531Z 3006/3106 16010KT P6SM FEW030 SCT120
     FM300800 16008KT P6SM SCT025
      TEMPO 3009/3013 BKN015
     FM301600 20012G22KT P6SM SCT060
     FM302000 20020G30KT P6SM SCT100
     FM310200 14014KT P6SM SCT080=

USA.gov is the U.S. government's official web portal to all federal, state and local government web resources and services.